createdAt,value
2023-04-20T00:01:02.501Z,4.13
2023-04-20T00:03:33.201Z,3.23
2023-04-20T00:06:02.571Z,4.13
2023-04-20T00:08:33.070Z,5.53
2023-04-20T00:11:02.594Z,4.87
2023-04-20T00:13:31.886Z,3.80
2023-04-20T00:16:00.990Z,4.80
2023-04-20T00:18:30.406Z,5.33
2023-04-20T00:20:59.845Z,6.30
2023-04-20T00:23:29.308Z,4.77
2023-04-20T00:25:59.918Z,12.93
2023-04-20T00:28:29.340Z,3.87
2023-04-20T00:30:58.655Z,3.73
2023-04-20T00:33:28.391Z,2.90
2023-04-20T00:35:57.851Z,4.00
2023-04-20T00:38:27.989Z,13.33
2023-04-20T00:40:57.566Z,3.20
2023-04-20T00:43:28.310Z,9.50
2023-04-20T00:45:57.515Z,4.47
2023-04-20T00:48:27.473Z,2.83
2023-04-20T00:50:57.059Z,5.43
2023-04-20T00:53:26.340Z,4.13
2023-04-20T00:55:55.827Z,2.93
2023-04-20T00:58:25.092Z,7.17
2023-04-20T01:00:55.662Z,7.67
2023-04-20T01:03:25.103Z,2.97
2023-04-20T01:05:54.304Z,4.20
2023-04-20T01:08:27.864Z,5.13
2023-04-20T01:10:57.898Z,4.33
2023-04-20T01:13:27.320Z,10.80
2023-04-20T01:16:01.744Z,7.93
2023-04-20T01:18:30.982Z,5.57
2023-04-20T01:21:00.251Z,6.27
2023-04-20T01:23:31.816Z,3.73
2023-04-20T01:26:01.033Z,4.63
2023-04-20T01:28:30.409Z,4.80
2023-04-20T01:30:59.694Z,4.00
2023-04-20T01:33:28.950Z,4.50
2023-04-20T01:35:58.197Z,5.73
2023-04-20T01:38:27.760Z,3.47
2023-04-20T01:40:59.162Z,4.33
2023-04-20T01:43:30.083Z,4.10
2023-04-20T01:45:59.333Z,5.67
2023-04-20T01:48:28.875Z,7.23
2023-04-20T01:50:58.487Z,4.27
2023-04-20T01:53:28.067Z,5.70
2023-04-20T01:55:58.518Z,3.73
2023-04-20T01:58:27.659Z,6.33
2023-04-20T02:00:57.481Z,4.23
2023-04-20T02:03:52.156Z,7.07
2023-04-20T02:06:23.362Z,4.83
2023-04-20T02:08:52.683Z,4.60
2023-04-20T02:11:23.861Z,3.10
2023-04-20T02:13:53.025Z,3.67
2023-04-20T02:16:23.043Z,3.10
2023-04-20T02:18:52.048Z,2.90
2023-04-20T02:21:21.625Z,6.43
2023-04-20T02:23:50.877Z,7.00
2023-04-20T02:26:23.191Z,7.10
2023-04-20T02:28:52.239Z,3.60
2023-04-20T02:31:21.425Z,4.63
2023-04-20T02:33:51.747Z,5.03
2023-04-20T02:36:21.411Z,4.70
2023-04-20T02:38:50.770Z,2.97
2023-04-20T02:41:21.476Z,5.00
2023-04-20T02:43:52.389Z,3.23
2023-04-20T02:46:22.672Z,5.10
2023-04-20T02:48:51.839Z,3.83
2023-04-20T02:51:21.328Z,2.60
2023-04-20T02:53:50.765Z,5.87
2023-04-20T02:56:31.175Z,4.37
2023-04-20T02:59:06.920Z,3.83
2023-04-20T03:01:39.352Z,3.47
2023-04-20T03:04:22.448Z,3.87
2023-04-20T03:07:07.411Z,2.37
2023-04-20T03:09:40.276Z,4.30
2023-04-20T03:12:22.495Z,3.03
2023-04-20T03:15:23.981Z,4.30
2023-04-20T03:18:05.479Z,4.20
2023-04-20T03:20:34.844Z,3.13
2023-04-20T03:23:04.122Z,5.90
2023-04-20T03:25:33.414Z,4.20
2023-04-20T03:28:08.774Z,5.27
2023-04-20T03:30:41.332Z,4.53
2023-04-20T03:33:17.374Z,5.73
2023-04-20T03:35:46.846Z,2.43
2023-04-20T03:38:15.883Z,3.90
2023-04-20T03:40:46.329Z,4.73
2023-04-20T03:43:17.747Z,3.73
2023-04-20T03:45:49.813Z,5.50
2023-04-20T03:48:20.296Z,4.17
2023-04-20T03:50:49.976Z,4.13
2023-04-20T03:53:19.604Z,4.70
2023-04-20T03:55:48.829Z,3.10
2023-04-20T03:58:22.715Z,4.40
2023-04-20T04:01:09.806Z,4.77
2023-04-20T04:03:43.426Z,3.20
2023-04-20T04:06:13.715Z,2.80
2023-04-20T04:08:43.525Z,6.83
2023-04-20T04:11:12.819Z,3.37
2023-04-20T04:13:42.174Z,2.40
2023-04-20T04:16:13.905Z,3.17
2023-04-20T04:18:46.043Z,2.40
2023-04-20T04:21:16.274Z,2.10
2023-04-20T04:23:51.445Z,3.47
2023-04-20T04:26:33.810Z,6.77
2023-04-20T04:29:04.600Z,3.63
2023-04-20T04:31:36.298Z,2.40
2023-04-20T04:34:18.505Z,5.30
2023-04-20T04:36:52.918Z,4.00
2023-04-20T04:39:30.041Z,2.60
2023-04-20T04:42:08.958Z,3.20
2023-04-20T04:44:43.882Z,4.47
2023-04-20T04:47:20.344Z,5.10
2023-04-20T04:49:49.626Z,6.20
2023-04-20T04:52:19.042Z,6.47
2023-04-20T04:54:49.661Z,2.17
2023-04-20T04:57:18.761Z,2.40
2023-04-20T04:59:47.988Z,4.07
2023-04-20T05:02:19.267Z,2.70
2023-04-20T05:04:48.500Z,3.00
2023-04-20T05:07:18.154Z,5.57
2023-04-20T05:09:47.247Z,2.00
2023-04-20T05:12:16.504Z,5.47
2023-04-20T05:14:45.850Z,3.33
2023-04-20T05:17:15.148Z,3.63
2023-04-20T05:19:46.367Z,3.20
2023-04-20T05:22:15.980Z,2.23
2023-04-20T05:24:45.249Z,4.10
2023-04-20T05:27:14.578Z,3.20
2023-04-20T05:29:43.853Z,2.53
2023-04-20T05:32:13.251Z,5.63
2023-04-20T05:34:42.315Z,2.60
2023-04-20T05:37:13.445Z,4.20
2023-04-20T05:39:42.913Z,5.83
2023-04-20T05:42:12.146Z,3.90
2023-04-20T05:44:43.484Z,4.27
2023-04-20T05:47:12.732Z,4.20
2023-04-20T05:49:41.872Z,4.03
2023-04-20T05:52:11.387Z,3.10
2023-04-20T05:54:42.373Z,3.40
2023-04-20T05:57:11.791Z,3.30
2023-04-20T05:59:41.021Z,4.00
2023-04-20T06:02:10.249Z,2.03
2023-04-20T06:04:39.842Z,4.83
2023-04-20T06:07:09.176Z,4.40
2023-04-20T06:09:38.582Z,3.30
2023-04-20T06:12:10.188Z,2.10
2023-04-20T06:14:39.457Z,4.07
2023-04-20T06:17:08.872Z,4.00
2023-04-20T06:19:38.290Z,2.30
2023-04-20T06:22:08.418Z,2.90
2023-04-20T06:24:38.990Z,3.63
2023-04-20T06:27:09.796Z,5.43
2023-04-20T06:29:39.357Z,4.97
2023-04-20T06:32:08.473Z,4.27
2023-04-20T06:34:37.729Z,17.77
2023-04-20T06:37:08.788Z,6.20
2023-04-20T06:39:38.472Z,6.50
2023-04-20T06:42:08.704Z,4.10
2023-04-20T06:44:39.685Z,6.03
2023-04-20T06:47:08.856Z,5.57
2023-04-20T06:49:39.647Z,2.73
2023-04-20T06:52:09.372Z,3.47
2023-04-20T06:54:38.979Z,6.53
2023-04-20T06:57:08.320Z,6.43
2023-04-20T06:59:37.582Z,8.47
2023-04-20T07:02:08.823Z,4.37
2023-04-20T07:04:38.726Z,4.07
2023-04-20T07:07:08.355Z,4.90
2023-04-20T07:09:37.950Z,20.40
2023-04-20T07:12:07.670Z,16.87
2023-04-20T07:14:36.913Z,5.53
2023-04-20T07:17:06.191Z,9.47
2023-04-20T07:19:37.303Z,6.13
2023-04-20T07:22:07.249Z,8.33
2023-04-20T07:24:36.718Z,6.90
2023-04-20T07:27:06.850Z,9.20
2023-04-20T07:29:36.374Z,15.40
2023-04-20T07:32:05.620Z,10.77
2023-04-20T07:34:36.921Z,7.63
2023-04-20T07:37:06.426Z,9.50
2023-04-20T07:39:36.057Z,5.83
2023-04-20T07:42:05.434Z,14.17
2023-04-20T07:44:35.771Z,4.17
2023-04-20T07:47:05.089Z,10.37
2023-04-20T07:49:38.825Z,6.00
2023-04-20T07:52:16.521Z,10.30
2023-04-20T07:54:46.769Z,8.90
2023-04-20T07:57:16.573Z,8.70
2023-04-20T07:59:48.003Z,13.77
2023-04-20T08:02:18.540Z,10.17
2023-04-20T08:04:49.141Z,11.00
2023-04-20T08:07:20.271Z,13.73
2023-04-20T08:09:49.781Z,12.23
2023-04-20T08:12:18.915Z,9.43
2023-04-20T08:14:48.380Z,7.30
2023-04-20T08:17:17.580Z,11.40
2023-04-20T08:19:46.822Z,11.20
2023-04-20T08:22:16.032Z,15.77
2023-04-20T08:24:47.656Z,9.30
2023-04-20T08:27:17.543Z,10.07
2023-04-20T08:29:46.773Z,12.93
2023-04-20T08:32:16.067Z,8.30
2023-04-20T08:34:45.245Z,16.43
2023-04-20T08:37:14.488Z,4.67
2023-04-20T08:39:43.868Z,8.30
2023-04-20T08:42:17.236Z,6.87
2023-04-20T08:44:46.522Z,8.30
2023-04-20T08:47:16.489Z,11.80
2023-04-20T08:49:47.063Z,10.43
2023-04-20T08:52:16.654Z,10.30
2023-04-20T08:54:56.014Z,14.73
2023-04-20T08:57:27.931Z,15.03
2023-04-20T08:59:58.540Z,11.50
2023-04-20T09:02:28.104Z,8.07
2023-04-20T09:05:07.067Z,11.80
2023-04-20T09:07:36.329Z,18.20
2023-04-20T09:10:06.139Z,12.27
2023-04-20T09:12:45.101Z,17.40
2023-04-20T09:15:25.933Z,16.13
2023-04-20T09:17:55.374Z,18.53
2023-04-20T09:20:31.504Z,17.10
2023-04-20T09:23:01.059Z,14.37
2023-04-20T09:25:34.506Z,14.80
2023-04-20T09:28:05.576Z,12.23
2023-04-20T09:30:41.661Z,9.37
2023-04-20T09:33:12.630Z,8.33
2023-04-20T09:35:42.692Z,11.50
2023-04-20T09:38:12.632Z,6.70
2023-04-20T09:40:42.135Z,15.37
2023-04-20T09:43:15.441Z,9.30
2023-04-20T09:45:44.859Z,11.00
2023-04-20T09:48:19.556Z,5.40
2023-04-20T09:50:50.998Z,17.27
2023-04-20T09:53:21.624Z,6.57
2023-04-20T09:55:51.341Z,7.03
2023-04-20T09:58:22.556Z,8.37
2023-04-20T10:00:52.334Z,13.33
2023-04-20T10:03:22.340Z,6.93
2023-04-20T10:05:55.820Z,10.10
2023-04-20T10:08:25.817Z,9.77
2023-04-20T10:10:55.177Z,9.43
2023-04-20T10:13:35.694Z,6.17
2023-04-20T10:16:05.496Z,17.13
2023-04-20T10:18:34.743Z,7.40
2023-04-20T10:21:09.692Z,5.83
2023-04-20T10:23:48.954Z,16.73
2023-04-20T10:26:18.384Z,7.77
2023-04-20T10:28:49.368Z,7.63
2023-04-20T10:31:20.735Z,7.20
2023-04-20T10:33:54.082Z,5.83
2023-04-20T10:36:27.030Z,5.83
2023-04-20T10:38:56.503Z,5.43
2023-04-20T10:41:26.004Z,6.43
2023-04-20T10:43:57.326Z,9.27
2023-04-20T10:46:26.924Z,10.57
2023-04-20T10:48:56.749Z,11.70
2023-04-20T10:51:26.314Z,4.07
2023-04-20T10:54:06.370Z,8.53
2023-04-20T10:56:39.483Z,10.60
2023-04-20T10:59:10.605Z,4.27
2023-04-20T11:01:40.249Z,11.50
2023-04-20T11:04:09.847Z,7.13
2023-04-20T11:06:39.776Z,7.57
2023-04-20T11:09:20.302Z,10.37
2023-04-20T11:12:01.166Z,8.73
2023-04-20T11:14:32.932Z,8.03
2023-04-20T11:17:02.821Z,18.43
2023-04-20T11:19:33.679Z,5.60
2023-04-20T11:22:03.460Z,10.50
2023-04-20T11:24:33.966Z,8.30
2023-04-20T11:27:04.975Z,13.60
2023-04-20T11:29:38.096Z,11.00
2023-04-20T11:32:08.392Z,6.03
2023-04-20T11:34:38.766Z,8.20
2023-04-20T11:37:08.338Z,9.23
2023-04-20T11:39:37.691Z,5.27
2023-04-20T11:42:07.711Z,9.50
2023-04-20T11:44:41.570Z,4.20
2023-04-20T11:47:10.947Z,9.60
2023-04-20T11:49:40.133Z,4.53
2023-04-20T11:52:09.826Z,9.00
2023-04-20T11:54:38.858Z,14.00
2023-04-20T11:57:08.511Z,7.23
2023-04-20T11:59:39.166Z,7.73
2023-04-20T12:02:08.376Z,22.47
2023-04-20T12:04:39.136Z,10.73
2023-04-20T12:07:08.698Z,13.30
2023-04-20T12:09:38.584Z,7.90
2023-04-20T12:12:08.808Z,6.00
2023-04-20T12:14:39.824Z,10.43
2023-04-20T12:17:08.963Z,4.23
2023-04-20T12:19:38.180Z,4.60
2023-04-20T12:22:08.208Z,5.93
2023-04-20T12:24:37.601Z,13.53
2023-04-20T12:27:07.463Z,9.90
2023-04-20T12:29:36.472Z,8.63
2023-04-20T12:32:07.760Z,11.83
2023-04-20T12:34:37.172Z,7.67
2023-04-20T12:37:06.352Z,6.57
2023-04-20T12:39:35.761Z,6.07
2023-04-20T12:42:04.931Z,7.43
2023-04-20T12:44:34.028Z,5.00
2023-04-20T12:47:03.401Z,3.70
2023-04-20T12:49:34.320Z,7.10
2023-04-20T12:52:04.473Z,4.23
2023-04-20T12:54:34.861Z,4.87
2023-04-20T12:57:04.562Z,6.37
2023-04-20T12:59:33.924Z,5.37
2023-04-20T13:02:03.532Z,9.40
2023-04-20T13:04:36.585Z,3.37
2023-04-20T13:07:06.403Z,4.37
2023-04-20T13:09:35.904Z,7.00
2023-04-20T13:12:05.304Z,5.73
2023-04-20T13:14:34.972Z,5.90
2023-04-20T13:17:06.435Z,10.73
2023-04-20T13:19:37.619Z,5.37
2023-04-20T13:22:06.859Z,24.97
2023-04-20T13:24:36.016Z,26.17
2023-04-20T13:27:05.510Z,24.67
2023-04-20T13:29:35.169Z,7.73
2023-04-20T13:32:04.438Z,6.53
2023-04-20T13:34:34.051Z,7.13
2023-04-20T13:37:04.925Z,6.80
2023-04-20T13:39:34.518Z,6.43
2023-04-20T13:42:03.902Z,5.33
2023-04-20T13:44:33.094Z,13.53
2023-04-20T13:47:02.715Z,13.17
2023-04-20T13:49:31.981Z,7.27
2023-04-20T13:52:01.068Z,4.00
2023-04-20T13:54:31.887Z,3.50
2023-04-20T13:57:01.589Z,11.63
2023-04-20T13:59:31.046Z,3.00
2023-04-20T14:02:00.553Z,14.77
2023-04-20T14:04:30.463Z,3.93
2023-04-20T14:06:59.701Z,7.23
2023-04-20T14:09:30.109Z,8.37
2023-04-20T14:12:01.964Z,6.63
2023-04-20T14:14:31.138Z,6.00
2023-04-20T14:17:00.158Z,7.30
2023-04-20T14:19:29.713Z,3.60
2023-04-20T14:21:58.973Z,4.70
2023-04-20T14:24:28.417Z,3.83
2023-04-20T14:26:58.539Z,8.80
2023-04-20T14:29:29.171Z,14.43
2023-04-20T14:31:58.743Z,8.60
2023-04-20T14:34:28.255Z,5.47
2023-04-20T14:36:57.855Z,5.00
2023-04-20T14:39:27.097Z,10.17
2023-04-20T14:41:56.902Z,12.37
2023-04-20T14:44:26.650Z,5.57
2023-04-20T14:46:58.277Z,9.47
2023-04-20T14:49:27.758Z,10.20
2023-04-20T14:51:56.885Z,7.23
2023-04-20T14:54:26.292Z,4.87
2023-04-20T14:56:56.138Z,11.70
2023-04-20T14:59:27.067Z,4.70
2023-04-20T15:02:02.967Z,13.07
2023-04-20T15:04:33.188Z,5.10
2023-04-20T15:07:02.614Z,11.67
2023-04-20T15:09:32.907Z,7.77
2023-04-20T15:12:02.351Z,20.20
2023-04-20T15:14:31.562Z,6.57
2023-04-20T15:17:02.137Z,12.63
2023-04-20T15:19:31.449Z,4.63
2023-04-20T15:22:01.088Z,8.00
2023-04-20T15:24:30.682Z,11.13
2023-04-20T15:27:00.207Z,3.73
2023-04-20T15:29:29.680Z,6.47
2023-04-20T15:31:59.269Z,9.50
2023-04-20T15:34:30.113Z,6.43
2023-04-20T15:36:59.576Z,9.00
2023-04-20T15:39:29.363Z,14.70
2023-04-20T15:41:59.561Z,8.10
2023-04-20T15:44:29.558Z,13.30
2023-04-20T15:46:59.259Z,9.60
2023-04-20T15:49:30.545Z,5.20
2023-04-20T15:51:59.858Z,4.07
2023-04-20T15:54:29.465Z,6.43
2023-04-20T15:56:59.437Z,10.30
2023-04-20T15:59:28.578Z,2.60
2023-04-20T16:01:58.283Z,5.17
2023-04-20T16:04:27.890Z,5.73
2023-04-20T16:06:59.041Z,9.30
2023-04-20T16:09:28.500Z,4.43
2023-04-20T16:11:57.803Z,9.27
2023-04-20T16:14:28.139Z,8.67
2023-04-20T16:16:58.051Z,5.53
2023-04-20T16:19:27.241Z,6.27
2023-04-20T16:21:57.041Z,6.17
2023-04-20T16:24:27.629Z,9.33
2023-04-20T16:27:01.114Z,5.47
2023-04-20T16:29:30.904Z,9.23
2023-04-20T16:32:00.133Z,5.60
2023-04-20T16:34:31.326Z,8.70
2023-04-20T16:37:00.660Z,7.17
2023-04-20T16:39:31.369Z,11.07
2023-04-20T16:42:01.028Z,5.70
2023-04-20T16:44:30.772Z,10.60
2023-04-20T16:47:02.313Z,6.57
2023-04-20T16:49:31.641Z,14.47
2023-04-20T16:52:00.795Z,8.33
2023-04-20T16:54:31.757Z,8.20
2023-04-20T16:57:01.674Z,12.50
2023-04-20T16:59:31.493Z,4.80
2023-04-20T17:02:01.097Z,6.63
2023-04-20T17:04:31.341Z,9.77
2023-04-20T17:07:01.401Z,8.30
2023-04-20T17:09:31.922Z,5.40
2023-04-20T17:12:01.532Z,10.83
2023-04-20T17:14:32.428Z,13.50
2023-04-20T17:17:02.067Z,17.00
2023-04-20T17:19:31.789Z,8.77
2023-04-20T17:22:03.905Z,12.60
2023-04-20T17:24:34.731Z,7.50
2023-04-20T17:27:04.361Z,9.03
2023-04-20T17:29:38.377Z,9.33
2023-04-20T17:32:08.384Z,11.07
2023-04-20T17:34:37.500Z,7.70
2023-04-20T17:37:06.901Z,7.03
2023-04-20T17:39:37.837Z,5.80
2023-04-20T17:42:07.639Z,9.43
2023-04-20T17:44:37.169Z,6.53
2023-04-20T17:47:06.609Z,6.93
2023-04-20T17:49:36.628Z,12.50
2023-04-20T17:52:06.635Z,7.77
2023-04-20T17:54:37.268Z,8.10
2023-04-20T17:57:07.098Z,7.83
2023-04-20T17:59:36.486Z,13.43
2023-04-20T18:02:07.668Z,10.60
2023-04-20T18:04:37.588Z,9.10
2023-04-20T18:07:07.156Z,13.07
2023-04-20T18:09:39.111Z,8.43
2023-04-20T18:12:10.875Z,12.27
2023-04-20T18:14:41.399Z,28.00
2023-04-20T18:17:10.851Z,7.30
2023-04-20T18:19:41.190Z,11.87
2023-04-20T18:22:10.457Z,14.10
2023-04-20T18:24:41.618Z,9.70
2023-04-20T18:27:11.587Z,16.10
2023-04-20T18:29:40.629Z,18.13
2023-04-20T18:32:10.144Z,12.97
2023-04-20T18:34:39.342Z,8.97
2023-04-20T18:37:09.948Z,10.27
2023-04-20T18:39:40.194Z,17.77
2023-04-20T18:42:11.100Z,10.77
2023-04-20T18:44:40.770Z,27.23
2023-04-20T18:47:10.302Z,13.33
2023-04-20T18:49:40.830Z,12.07
2023-04-20T18:52:10.424Z,15.50
2023-04-20T18:54:40.380Z,11.83
2023-04-20T18:57:10.956Z,18.80
2023-04-20T18:59:40.335Z,14.00
2023-04-20T19:02:10.416Z,17.63
2023-04-20T19:04:40.169Z,11.93
2023-04-20T19:07:09.452Z,16.70
2023-04-20T19:09:38.561Z,14.50
2023-04-20T19:12:08.627Z,11.07
2023-04-20T19:14:39.456Z,16.83
2023-04-20T19:17:09.557Z,21.77
2023-04-20T19:19:38.645Z,10.00
2023-04-20T19:22:07.915Z,12.83
2023-04-20T19:24:37.205Z,12.80
2023-04-20T19:27:06.408Z,17.97
2023-04-20T19:29:36.583Z,14.77
2023-04-20T19:32:07.984Z,11.43
2023-04-20T19:34:37.566Z,19.67
2023-04-20T19:37:06.943Z,17.33
2023-04-20T19:39:36.764Z,12.53
2023-04-20T19:42:06.453Z,18.23
2023-04-20T19:44:36.099Z,12.63
2023-04-20T19:47:05.356Z,12.40
2023-04-20T19:49:36.386Z,19.13
2023-04-20T19:52:05.912Z,11.73
2023-04-20T19:54:35.126Z,14.53
2023-04-20T19:57:04.839Z,16.70
2023-04-20T19:59:34.057Z,15.00
2023-04-20T20:02:03.671Z,16.90
2023-04-20T20:04:33.846Z,21.20
2023-04-20T20:07:05.847Z,13.67
2023-04-20T20:09:35.188Z,14.23
2023-04-20T20:12:04.981Z,20.63
2023-04-20T20:14:35.008Z,16.90
2023-04-20T20:17:06.789Z,19.60
2023-04-20T20:19:36.017Z,16.90
2023-04-20T20:22:06.734Z,21.50
2023-04-20T20:24:36.335Z,28.63
2023-04-20T20:27:05.555Z,25.47
2023-04-20T20:29:34.822Z,24.53
2023-04-20T20:32:04.263Z,25.90
2023-04-20T20:34:33.415Z,17.67
2023-04-20T20:37:04.804Z,20.03
2023-04-20T20:39:35.584Z,19.93
2023-04-20T20:42:05.872Z,19.30
2023-04-20T20:44:40.281Z,19.53
2023-04-20T20:47:09.571Z,23.80
2023-04-20T20:49:38.975Z,19.90
2023-04-20T20:52:08.344Z,20.53
2023-04-20T20:54:38.761Z,24.03
2023-04-20T20:57:07.952Z,21.87
2023-04-20T20:59:37.360Z,22.60
2023-04-20T21:02:06.620Z,16.87
2023-04-20T21:04:36.804Z,19.17
2023-04-20T21:07:06.194Z,20.17
2023-04-20T21:09:35.788Z,19.00
2023-04-20T21:12:06.697Z,16.00
2023-04-20T21:14:37.297Z,10.40
2023-04-20T21:17:06.778Z,16.20
2023-04-20T21:19:36.051Z,16.70
2023-04-20T21:22:05.368Z,19.30
2023-04-20T21:24:34.421Z,18.70
2023-04-20T21:27:04.218Z,12.07
2023-04-20T21:29:34.822Z,17.70
2023-04-20T21:32:04.144Z,11.23
2023-04-20T21:34:33.490Z,19.60
2023-04-20T21:37:05.805Z,17.33
2023-04-20T21:39:35.714Z,22.83
2023-04-20T21:42:04.821Z,21.23
2023-04-20T21:44:35.709Z,14.10
2023-04-20T21:47:06.347Z,16.23
2023-04-20T21:49:35.700Z,22.33
2023-04-20T21:52:05.648Z,16.30
2023-04-20T21:54:34.971Z,23.57
2023-04-20T21:57:04.277Z,18.43
2023-04-20T21:59:33.719Z,21.53
2023-04-20T22:02:03.113Z,16.83
2023-04-20T22:04:34.407Z,14.57
2023-04-20T22:07:03.829Z,22.13
2023-04-20T22:09:33.229Z,18.53
2023-04-20T22:12:03.348Z,15.70
2023-04-20T22:14:32.905Z,21.83
2023-04-20T22:17:02.103Z,15.60
2023-04-20T22:19:31.490Z,13.73
2023-04-20T22:22:02.320Z,15.33
2023-04-20T22:24:31.640Z,15.03
2023-04-20T22:27:01.541Z,12.13
2023-04-20T22:29:31.230Z,14.60
2023-04-20T22:32:00.631Z,13.63
2023-04-20T22:34:29.797Z,15.07
2023-04-20T22:36:58.999Z,12.07
2023-04-20T22:39:30.041Z,18.60
2023-04-20T22:41:59.290Z,12.37
2023-04-20T22:44:28.625Z,12.53
2023-04-20T22:46:58.329Z,14.37
2023-04-20T22:49:27.578Z,12.03
2023-04-20T22:51:57.649Z,13.70
2023-04-20T22:54:27.056Z,16.17
2023-04-20T22:56:59.011Z,8.93
2023-04-20T22:59:28.527Z,12.07
2023-04-20T23:01:57.589Z,15.23
2023-04-20T23:04:26.777Z,11.53
2023-04-20T23:06:57.927Z,11.90
2023-04-20T23:09:27.260Z,14.00
2023-04-20T23:11:58.705Z,14.63
2023-04-20T23:14:28.183Z,12.90
2023-04-20T23:16:59.385Z,10.07
2023-04-20T23:19:32.906Z,21.37
2023-04-20T23:22:02.279Z,14.17
2023-04-20T23:24:31.753Z,15.17
2023-04-20T23:27:02.797Z,11.67
2023-04-20T23:29:33.242Z,12.27
2023-04-20T23:32:02.839Z,18.40
2023-04-20T23:34:32.193Z,10.90
2023-04-20T23:37:01.473Z,15.97
2023-04-20T23:39:32.332Z,12.50
2023-04-20T23:42:02.890Z,12.10
2023-04-20T23:44:31.940Z,12.50
2023-04-20T23:47:01.001Z,11.07
2023-04-20T23:49:30.380Z,15.33
2023-04-20T23:51:59.797Z,18.63
2023-04-20T23:54:29.275Z,9.50
2023-04-20T23:56:59.714Z,17.10
2023-04-20T23:59:30.453Z,14.30
